Time;durP1;ratioP1;P1;durP2;ratioP2;P2;SDS_P1;SDS_P2;PMS_P1;PMS_P2;Temp;Humidity;BMP_temperature;BMP_pressure;BME280_temperature;BME280_humidity;BME280_pressure;Samples;Min_cycle;Max_cycle;Signal;HPM_P1;HPM_P2
2022/09/18 00:02:01;;;;;;;;;;;18.10;95.60;;;;;;5090840;28;20188;-9
2022/09/18 00:04:27;;;;;;;;;;;18.10;95.60;;;;;;5055735;28;20311;-9
2022/09/18 00:06:52;;;;;;;;;;;18.10;95.80;;;;;;5073294;28;19908;-8
2022/09/18 00:09:18;;;;;;;;;;;18.10;95.60;;;;;;5056711;28;19912;-10
2022/09/18 00:11:45;;;;;;;;;;;18.10;95.50;;;;;;5056470;28;19908;-10
2022/09/18 00:14:12;;;;;;;;;;;18.10;95.50;;;;;;5057718;28;19917;-10
2022/09/18 00:16:42;;;;;;;;;;;18.10;95.50;;;;;;5073897;28;20360;-9
2022/09/18 00:19:07;;;;;;;;;;;18.10;95.50;;;;;;5074402;28;20417;-9
2022/09/18 00:21:38;;;;;;;;;;;18.10;95.50;;;;;;5074898;28;19908;-10
2022/09/18 00:24:07;;;;;;;;;;;18.10;95.50;;;;;;5074633;28;19939;-10
2022/09/18 00:26:35;;;;;;;;;;;18.10;95.50;;;;;;5074568;28;20332;-7
2022/09/18 00:29:01;;;;;;;;;;;18.10;95.50;;;;;;5073995;28;19913;-10
2022/09/18 00:31:28;;;;;;;;;;;18.10;95.50;;;;;;5056068;28;19919;-10
2022/09/18 00:34:01;;;;;;;;;;;18.10;95.50;;;;;;5056802;28;19908;-11
2022/09/18 00:36:29;;;;;;;;;;;18.10;95.50;;;;;;5055298;28;20205;-9
2022/09/18 00:38:58;;;;;;;;;;;18.10;95.50;;;;;;5072667;28;19915;-10
2022/09/18 00:41:28;;;;;;;;;;;18.10;95.50;;;;;;5053598;28;19955;-8
2022/09/18 00:43:58;;;;;;;;;;;18.00;95.50;;;;;;5052963;28;20066;-9
2022/09/18 00:46:35;;;;;;;;;;;18.10;95.50;;;;;;5055188;28;19909;-9
2022/09/18 00:49:10;;;;;;;;;;;18.00;95.50;;;;;;5073031;28;19978;-10
2022/09/18 00:51:40;;;;;;;;;;;18.10;95.50;;;;;;5053154;28;19909;-9
2022/09/18 00:54:10;;;;;;;;;;;18.00;95.40;;;;;;5070848;28;19908;-10
2022/09/18 00:56:36;;;;;;;;;;;18.00;95.40;;;;;;5070607;28;19919;-9
2022/09/18 00:59:01;;;;;;;;;;;18.10;95.50;;;;;;5059599;28;19963;-11
2022/09/18 01:01:27;;;;;;;;;;;18.00;95.40;;;;;;5076191;28;20291;-8
2022/09/18 01:03:53;;;;;;;;;;;18.00;95.50;;;;;;5057639;28;19909;-11
2022/09/18 01:06:44;;;;;;;;;;;18.00;95.50;;;;;;5072330;28;19919;-9
2022/09/18 01:09:20;;;;;;;;;;;18.00;95.50;;;;;;5035179;28;19920;-9
2022/09/18 01:11:46;;;;;;;;;;;18.00;95.50;;;;;;5055050;28;19908;-10
2022/09/18 01:14:25;;;;;;;;;;;18.00;95.40;;;;;;5055618;28;19915;-9
2022/09/18 01:16:51;;;;;;;;;;;18.00;95.40;;;;;;5074191;28;20293;-10
2022/09/18 01:19:17;;;;;;;;;;;18.00;95.40;;;;;;5057435;28;20390;-11
2022/09/18 01:21:45;;;;;;;;;;;18.00;95.40;;;;;;5057193;28;19978;-11
2022/09/18 01:24:19;;;;;;;;;;;18.00;95.40;;;;;;5074351;28;20008;-8
2022/09/18 01:26:48;;;;;;;;;;;18.00;95.40;;;;;;5055799;28;19909;-11
2022/09/18 01:29:17;;;;;;;;;;;18.00;95.40;;;;;;5056638;28;20305;-10
2022/09/18 01:31:46;;;;;;;;;;;18.00;95.40;;;;;;5056529;28;19912;-10
2022/09/18 01:34:21;;;;;;;;;;;18.00;95.40;;;;;;5053473;28;20030;-10
2022/09/18 01:36:51;;;;;;;;;;;18.00;95.40;;;;;;5074325;28;19908;-8
2022/09/18 01:39:28;;;;;;;;;;;18.00;95.40;;;;;;5057527;28;19920;-10
2022/09/18 01:41:55;;;;;;;;;;;18.00;95.30;;;;;;5074241;28;20331;-11
2022/09/18 01:44:23;;;;;;;;;;;18.00;95.30;;;;;;5055610;28;20002;-9
2022/09/18 01:46:49;;;;;;;;;;;18.00;95.40;;;;;;5070852;28;19919;-8
2022/09/18 01:49:18;;;;;;;;;;;18.00;95.40;;;;;;5072253;28;20131;-8
2022/09/18 01:51:46;;;;;;;;;;;18.00;95.30;;;;;;5073265;28;19908;-10
2022/09/18 01:54:14;;;;;;;;;;;18.00;95.30;;;;;;5076498;28;19970;-9
2022/09/18 01:56:46;;;;;;;;;;;18.00;95.30;;;;;;5078290;28;19909;-10
2022/09/18 01:59:21;;;;;;;;;;;18.00;95.30;;;;;;5078522;28;19908;-7
2022/09/18 02:01:48;;;;;;;;;;;18.00;95.30;;;;;;5056004;28;19928;-11
2022/09/18 02:04:17;;;;;;;;;;;18.00;95.30;;;;;;5059466;28;19944;-10
2022/09/18 02:07:02;;;;;;;;;;;18.00;95.30;;;;;;5060097;28;19935;-9
2022/09/18 02:09:30;;;;;;;;;;;18.00;95.30;;;;;;5061950;28;19924;-9
2022/09/18 02:11:57;;;;;;;;;;;17.90;95.20;;;;;;5059710;28;19938;-9
2022/09/18 02:14:27;;;;;;;;;;;17.90;95.20;;;;;;5076370;28;19923;-9
2022/09/18 02:16:56;;;;;;;;;;;17.90;95.20;;;;;;5077437;28;19923;-9
2022/09/18 02:19:33;;;;;;;;;;;17.90;95.20;;;;;;5060537;28;19965;-9
2022/09/18 02:22:01;;;;;;;;;;;17.90;95.20;;;;;;5060570;28;19911;-10
2022/09/18 02:24:32;;;;;;;;;;;17.90;95.20;;;;;;5060221;28;19962;-9
2022/09/18 02:26:59;;;;;;;;;;;17.90;95.20;;;;;;5058877;28;20220;-9
2022/09/18 02:29:24;;;;;;;;;;;17.90;95.20;;;;;;5077204;28;20243;-8
2022/09/18 02:31:53;;;;;;;;;;;17.90;95.20;;;;;;5058445;28;20023;-11
2022/09/18 02:34:19;;;;;;;;;;;17.90;95.20;;;;;;5059382;28;20281;-10
2022/09/18 02:37:00;;;;;;;;;;;17.90;95.20;;;;;;5059568;28;20209;-10
2022/09/18 02:39:45;;;;;;;;;;;17.90;95.20;;;;;;5059607;28;20239;-11
2022/09/18 02:42:29;;;;;;;;;;;17.90;95.20;;;;;;5077102;28;19908;-10
2022/09/18 02:45:00;;;;;;;;;;;17.90;95.20;;;;;;5078250;28;19924;-10
2022/09/18 02:47:45;;;;;;;;;;;17.90;95.20;;;;;;5060539;28;19909;-10
2022/09/18 02:50:23;;;;;;;;;;;17.90;95.20;;;;;;5060223;28;19908;-8
2022/09/18 02:52:56;;;;;;;;;;;17.90;95.20;;;;;;5078484;28;19909;-10
2022/09/18 02:55:27;;;;;;;;;;;17.90;95.20;;;;;;5078154;28;19912;-9
2022/09/18 02:58:01;;;;;;;;;;;17.90;95.20;;;;;;5055471;28;19909;-10
2022/09/18 03:00:27;;;;;;;;;;;17.90;95.20;;;;;;5078210;28;20303;-9
2022/09/18 03:02:57;;;;;;;;;;;17.90;95.20;;;;;;5077438;28;19935;-10
2022/09/18 03:05:24;;;;;;;;;;;17.90;95.20;;;;;;5057148;28;19966;-10
2022/09/18 03:07:49;;;;;;;;;;;17.90;95.30;;;;;;5057723;28;19908;-10
2022/09/18 03:10:15;;;;;;;;;;;17.90;95.20;;;;;;5077571;28;19912;-11
2022/09/18 03:12:40;;;;;;;;;;;17.90;95.20;;;;;;5059119;28;19908;-8
2022/09/18 03:15:06;;;;;;;;;;;17.90;95.20;;;;;;5075018;28;19919;-8
2022/09/18 03:17:32;;;;;;;;;;;17.90;95.20;;;;;;5074704;28;19928;-8
2022/09/18 03:19:57;;;;;;;;;;;17.90;95.20;;;;;;5075767;28;19913;-10
2022/09/18 03:22:23;;;;;;;;;;;17.90;95.20;;;;;;5075669;28;19995;-9
2022/09/18 03:24:49;;;;;;;;;;;17.90;95.20;;;;;;5076497;28;19915;-9
2022/09/18 03:27:20;;;;;;;;;;;17.80;95.20;;;;;;5075521;28;19944;-10
2022/09/18 03:29:48;;;;;;;;;;;17.80;95.20;;;;;;5077266;28;19908;-10
2022/09/18 03:32:15;;;;;;;;;;;17.80;95.20;;;;;;5077492;28;20335;-12
2022/09/18 03:34:43;;;;;;;;;;;17.80;95.50;;;;;;5059540;28;20296;-9
2022/09/18 03:37:12;;;;;;;;;;;17.80;95.20;;;;;;5058866;28;19908;-10
2022/09/18 03:39:40;;;;;;;;;;;17.80;95.20;;;;;;5077684;28;19942;-9
2022/09/18 03:42:06;;;;;;;;;;;17.80;95.20;;;;;;5077151;28;20222;-10
2022/09/18 03:44:32;;;;;;;;;;;17.80;95.20;;;;;;5077808;28;20407;-9
2022/09/18 03:46:57;;;;;;;;;;;17.80;95.20;;;;;;5060053;28;19909;-8
2022/09/18 03:49:24;;;;;;;;;;;17.80;95.20;;;;;;5059493;28;19948;-8
2022/09/18 03:51:49;;;;;;;;;;;17.80;95.20;;;;;;5076953;28;19916;-10
2022/09/18 03:54:15;;;;;;;;;;;17.80;95.30;;;;;;5059761;28;19904;-10
2022/09/18 03:56:41;;;;;;;;;;;17.80;95.30;;;;;;5077742;28;20223;-8
2022/09/18 03:59:06;;;;;;;;;;;17.80;95.30;;;;;;5058757;28;19912;-9
2022/09/18 04:01:32;;;;;;;;;;;17.80;95.30;;;;;;5073785;28;19909;-9
2022/09/18 04:03:57;;;;;;;;;;;17.80;95.30;;;;;;5056933;28;19912;-8
2022/09/18 04:06:23;;;;;;;;;;;17.80;95.30;;;;;;5075038;28;19923;-10
2022/09/18 04:08:49;;;;;;;;;;;17.80;95.30;;;;;;5075615;28;20011;-9
2022/09/18 04:11:17;;;;;;;;;;;17.80;95.30;;;;;;5058330;28;19999;-10
2022/09/18 04:13:47;;;;;;;;;;;17.80;95.40;;;;;;5075366;28;19991;-9
2022/09/18 04:16:13;;;;;;;;;;;17.80;95.40;;;;;;5076278;28;19908;-9
2022/09/18 04:18:39;;;;;;;;;;;17.80;95.40;;;;;;5057066;28;19935;-10
2022/09/18 04:21:04;;;;;;;;;;;17.80;95.40;;;;;;5057813;28;19919;-10
2022/09/18 04:23:30;;;;;;;;;;;17.80;95.40;;;;;;5075811;28;19913;-9
2022/09/18 04:25:59;;;;;;;;;;;17.70;95.40;;;;;;5075768;28;20017;-11
2022/09/18 04:28:25;;;;;;;;;;;17.70;95.40;;;;;;5076120;28;19908;-8
2022/09/18 04:30:53;;;;;;;;;;;17.70;95.40;;;;;;5076134;28;19943;-10
2022/09/18 04:33:22;;;;;;;;;;;17.70;95.40;;;;;;5076871;28;19924;-10
2022/09/18 04:35:47;;;;;;;;;;;17.70;95.40;;;;;;5058825;28;20231;-11
2022/09/18 04:38:13;;;;;;;;;;;17.70;95.40;;;;;;5076389;28;20284;-8
2022/09/18 04:40:38;;;;;;;;;;;17.70;95.40;;;;;;5058583;28;19908;-8
2022/09/18 04:43:04;;;;;;;;;;;17.70;95.40;;;;;;5074476;28;19927;-10
2022/09/18 04:45:30;;;;;;;;;;;17.70;95.40;;;;;;5073330;28;19909;-10
2022/09/18 04:47:55;;;;;;;;;;;17.70;95.40;;;;;;5073335;28;20362;-10
2022/09/18 04:50:21;;;;;;;;;;;17.70;95.40;;;;;;5072990;28;20025;-11
2022/09/18 04:52:49;;;;;;;;;;;17.70;95.50;;;;;;5073807;28;20239;-8
2022/09/18 04:55:15;;;;;;;;;;;17.70;95.50;;;;;;5073433;28;20194;-10
2022/09/18 04:57:41;;;;;;;;;;;17.70;95.50;;;;;;5074722;28;19920;-8
2022/09/18 05:00:09;;;;;;;;;;;17.70;95.50;;;;;;5075214;28;19915;-10
2022/09/18 05:02:37;;;;;;;;;;;17.70;95.50;;;;;;5075272;28;19913;-9
2022/09/18 05:05:06;;;;;;;;;;;17.70;95.50;;;;;;5091128;28;19913;-9
2022/09/18 05:07:31;;;;;;;;;;;17.70;95.60;;;;;;5074413;28;19913;-10
2022/09/18 05:09:57;;;;;;;;;;;17.70;95.60;;;;;;5074411;28;20054;-10
2022/09/18 05:12:22;;;;;;;;;;;17.70;95.60;;;;;;5057221;28;19915;-10
2022/09/18 05:14:48;;;;;;;;;;;17.70;95.60;;;;;;5090498;28;20247;-10
2022/09/18 05:17:16;;;;;;;;;;;17.70;95.60;;;;;;5074350;28;20190;-11
2022/09/18 05:19:42;;;;;;;;;;;17.70;95.60;;;;;;5075081;28;19966;-9
2022/09/18 05:22:08;;;;;;;;;;;17.70;95.60;;;;;;5075288;28;19951;-10
2022/09/18 05:24:33;;;;;;;;;;;17.70;95.60;;;;;;5074490;28;19916;-9
2022/09/18 05:26:59;;;;;;;;;;;17.70;95.90;;;;;;5058883;28;19912;-9
2022/09/18 05:29:24;;;;;;;;;;;17.70;95.60;;;;;;5079192;28;19919;-9
2022/09/18 05:31:50;;;;;;;;;;;17.70;95.60;;;;;;5079182;28;19909;-9
2022/09/18 05:34:16;;;;;;;;;;;17.70;95.60;;;;;;5061582;28;19908;-10
2022/09/18 05:36:45;;;;;;;;;;;17.70;95.60;;;;;;5060059;28;19944;-9
2022/09/18 05:39:10;;;;;;;;;;;17.70;95.60;;;;;;5076727;28;19913;-10
2022/09/18 05:41:36;;;;;;;;;;;17.70;95.60;;;;;;5076359;28;19908;-10
2022/09/18 05:44:02;;;;;;;;;;;17.70;95.60;;;;;;5077595;28;20221;-11
2022/09/18 05:46:27;;;;;;;;;;;17.70;95.60;;;;;;5060347;28;19952;-10
2022/09/18 05:48:53;;;;;;;;;;;17.60;95.50;;;;;;5059672;28;19908;-11
2022/09/18 05:51:19;;;;;;;;;;;17.70;95.50;;;;;;5075564;28;20281;-9
2022/09/18 05:53:47;;;;;;;;;;;17.70;95.50;;;;;;5077489;28;19962;-9
2022/09/18 05:56:15;;;;;;;;;;;17.70;95.50;;;;;;5060051;28;19908;-10
2022/09/18 05:58:41;;;;;;;;;;;17.60;95.50;;;;;;5076865;28;19913;-9
2022/09/18 06:01:08;;;;;;;;;;;17.70;95.50;;;;;;5076354;28;19908;-10
2022/09/18 06:03:33;;;;;;;;;;;17.60;95.50;;;;;;5076229;28;19909;-11
2022/09/18 06:05:59;;;;;;;;;;;17.70;95.50;;;;;;5076184;28;19994;-9
2022/09/18 06:08:24;;;;;;;;;;;17.70;95.50;;;;;;5093789;28;19913;-9
2022/09/18 06:10:51;;;;;;;;;;;17.70;95.60;;;;;;5078164;28;20368;-9
2022/09/18 06:13:17;;;;;;;;;;;17.60;95.70;;;;;;5077007;28;20330;-9
2022/09/18 06:15:44;;;;;;;;;;;17.70;95.80;;;;;;5076842;28;20023;-10
2022/09/18 06:18:10;;;;;;;;;;;17.70;95.80;;;;;;5077589;28;19916;-8
2022/09/18 06:20:36;;;;;;;;;;;17.70;95.80;;;;;;5077376;28;19909;-11
2022/09/18 06:23:02;;;;;;;;;;;17.70;95.80;;;;;;5059807;28;19908;-10
2022/09/18 06:25:30;;;;;;;;;;;17.70;95.80;;;;;;5076549;28;19936;-10
2022/09/18 06:27:57;;;;;;;;;;;17.60;95.80;;;;;;5078622;28;20281;-10
2022/09/18 06:30:27;;;;;;;;;;;17.70;95.80;;;;;;5077704;28;19912;-10
2022/09/18 06:32:59;;;;;;;;;;;17.70;95.80;;;;;;5078117;28;20440;-10
2022/09/18 06:35:25;;;;;;;;;;;17.60;95.70;;;;;;5058861;28;20327;-9
2022/09/18 06:37:50;;;;;;;;;;;17.70;95.70;;;;;;5077438;28;20003;-10
2022/09/18 06:40:16;;;;;;;;;;;17.60;95.70;;;;;;5076465;28;19909;-11
2022/09/18 06:42:41;;;;;;;;;;;17.70;95.80;;;;;;5077234;28;19916;-11
2022/09/18 06:45:07;;;;;;;;;;;17.60;95.70;;;;;;5076062;28;19912;-10
2022/09/18 06:47:32;;;;;;;;;;;17.70;95.80;;;;;;5076202;28;19908;-10
2022/09/18 06:49:58;;;;;;;;;;;17.70;95.80;;;;;;5076173;28;19916;-11
2022/09/18 06:52:24;;;;;;;;;;;17.70;95.70;;;;;;5075813;28;19908;-9
2022/09/18 06:54:49;;;;;;;;;;;17.70;95.70;;;;;;5056814;28;20204;-10
2022/09/18 06:57:15;;;;;;;;;;;17.70;95.70;;;;;;5074785;28;19923;-10
2022/09/18 06:59:40;;;;;;;;;;;17.70;95.70;;;;;;5075879;28;20015;-10
2022/09/18 07:02:11;;;;;;;;;;;17.70;95.70;;;;;;5074277;28;19908;-10
2022/09/18 07:04:37;;;;;;;;;;;17.70;95.70;;;;;;5056539;28;19919;-9
2022/09/18 07:07:03;;;;;;;;;;;17.70;95.70;;;;;;5073969;28;20333;-8
2022/09/18 07:09:31;;;;;;;;;;;17.70;95.70;;;;;;5075223;28;19916;-10
2022/09/18 07:11:57;;;;;;;;;;;17.70;95.70;;;;;;5076199;28;20003;-10
2022/09/18 07:14:23;;;;;;;;;;;17.70;95.70;;;;;;5076828;28;20257;-10
2022/09/18 07:16:51;;;;;;;;;;;17.80;95.70;;;;;;5076974;28;19963;-9
2022/09/18 07:19:19;;;;;;;;;;;17.70;95.70;;;;;;5075379;28;19916;-9
2022/09/18 07:21:48;;;;;;;;;;;17.70;95.70;;;;;;5057002;28;19917;-10
2022/09/18 07:24:16;;;;;;;;;;;17.70;95.70;;;;;;5073601;28;19951;-9
2022/09/18 07:26:41;;;;;;;;;;;17.70;95.60;;;;;;5056046;28;19909;-9
2022/09/18 07:29:07;;;;;;;;;;;17.80;95.70;;;;;;5073688;28;19947;-10
2022/09/18 07:31:36;;;;;;;;;;;17.70;95.70;;;;;;5073405;28;20023;-11
2022/09/18 07:34:01;;;;;;;;;;;17.70;95.70;;;;;;5073737;28;20304;-10
2022/09/18 07:36:27;;;;;;;;;;;17.70;95.70;;;;;;5055076;28;19909;-8
2022/09/18 07:38:56;;;;;;;;;;;17.80;95.70;;;;;;5054858;28;20028;-10
2022/09/18 07:41:22;;;;;;;;;;;17.80;95.60;;;;;;5072512;28;19999;-10
2022/09/18 07:43:48;;;;;;;;;;;17.80;95.60;;;;;;5056258;28;19998;-9
2022/09/18 07:46:17;;;;;;;;;;;17.80;95.70;;;;;;5073356;28;19944;-11
2022/09/18 07:48:44;;;;;;;;;;;17.80;95.60;;;;;;5072238;28;19909;-9
2022/09/18 07:51:09;;;;;;;;;;;17.80;95.50;;;;;;5070838;28;19909;-10
2022/09/18 07:53:38;;;;;;;;;;;17.80;95.50;;;;;;5072878;28;20192;-10
2022/09/18 07:56:10;;;;;;;;;;;17.90;95.40;;;;;;5073937;28;20252;-10
2022/09/18 07:58:39;;;;;;;;;;;17.90;95.40;;;;;;5073336;28;19913;-9
2022/09/18 08:01:05;;;;;;;;;;;17.90;95.30;;;;;;5072320;28;19920;-11
2022/09/18 08:03:30;;;;;;;;;;;18.00;95.20;;;;;;5073686;28;19991;-8
2022/09/18 08:05:56;;;;;;;;;;;18.10;95.10;;;;;;5071634;28;20292;-9
2022/09/18 08:08:23;;;;;;;;;;;18.10;95.10;;;;;;5070359;28;19987;-9
2022/09/18 08:10:49;;;;;;;;;;;18.10;95.10;;;;;;5052558;28;20208;-10
2022/09/18 08:13:14;;;;;;;;;;;18.10;95.10;;;;;;5052914;28;19915;-9
2022/09/18 08:15:41;;;;;;;;;;;18.10;95.10;;;;;;5073483;28;20197;-9
2022/09/18 08:18:07;;;;;;;;;;;18.10;95.10;;;;;;5054769;28;20003;-10
2022/09/18 08:20:35;;;;;;;;;;;18.10;95.10;;;;;;5072503;28;20061;-9
2022/09/18 08:23:02;;;;;;;;;;;18.10;95.20;;;;;;5071270;28;20258;-10
2022/09/18 08:25:31;;;;;;;;;;;18.10;95.20;;;;;;5069518;28;20192;-9
2022/09/18 08:27:57;;;;;;;;;;;18.10;95.20;;;;;;5051142;28;19966;-9
2022/09/18 08:30:23;;;;;;;;;;;18.10;95.30;;;;;;5071363;28;20247;-10
2022/09/18 08:32:49;;;;;;;;;;;18.10;95.30;;;;;;5071607;28;20277;-10
2022/09/18 08:35:14;;;;;;;;;;;18.10;95.30;;;;;;5073379;28;20289;-9
2022/09/18 08:37:45;;;;;;;;;;;18.10;95.20;;;;;;5055215;28;20266;-11
2022/09/18 08:40:12;;;;;;;;;;;18.10;95.20;;;;;;5056539;28;19916;-10
2022/09/18 08:42:46;;;;;;;;;;;18.10;95.20;;;;;;5073214;28;19993;-9
2022/09/18 08:45:18;;;;;;;;;;;18.10;95.10;;;;;;5054684;28;19908;-9
2022/09/18 08:48:07;;;;;;;;;;;18.10;95.10;;;;;;5072689;28;19909;-9
2022/09/18 08:50:38;;;;;;;;;;;18.10;95.10;;;;;;5057429;28;19909;-11
2022/09/18 08:53:24;;;;;;;;;;;18.10;95.10;;;;;;5071627;28;19908;-9
2022/09/18 08:55:51;;;;;;;;;;;18.10;95.10;;;;;;5070203;28;19916;-10
2022/09/18 08:58:32;;;;;;;;;;;18.10;95.00;;;;;;5070413;28;19912;-9
2022/09/18 09:01:00;;;;;;;;;;;18.20;95.00;;;;;;5052533;28;19912;-8
2022/09/18 09:03:25;;;;;;;;;;;18.10;94.90;;;;;;5074843;28;19916;-9
2022/09/18 09:05:54;;;;;;;;;;;18.20;94.90;;;;;;5072021;28;19920;-10
2022/09/18 09:08:28;;;;;;;;;;;18.20;94.90;;;;;;5057273;28;20186;-8
2022/09/18 09:10:54;;;;;;;;;;;18.10;94.90;;;;;;5039478;28;19920;-10
2022/09/18 09:13:20;;;;;;;;;;;18.10;95.00;;;;;;5039541;28;19940;-10
2022/09/18 09:15:49;;;;;;;;;;;18.10;95.10;;;;;;5057446;28;19983;-10
2022/09/18 09:18:24;;;;;;;;;;;18.10;95.10;;;;;;5057283;28;19921;-10
2022/09/18 09:20:51;;;;;;;;;;;18.10;95.00;;;;;;5056024;28;19974;-10
2022/09/18 09:23:36;;;;;;;;;;;18.10;95.00;;;;;;5056879;28;19936;-10
2022/09/18 09:26:17;;;;;;;;;;;18.10;94.90;;;;;;5057377;28;19959;-9
2022/09/18 09:28:54;;;;;;;;;;;18.10;94.90;;;;;;5056506;28;20154;-10
2022/09/18 09:31:23;;;;;;;;;;;18.10;94.90;;;;;;5038703;28;19909;-10
2022/09/18 09:33:48;;;;;;;;;;;18.20;94.80;;;;;;5038311;28;19932;-11
2022/09/18 09:36:15;;;;;;;;;;;18.20;94.80;;;;;;5054704;28;20263;-10
2022/09/18 09:39:06;;;;;;;;;;;18.20;94.80;;;;;;5038296;28;19948;-10
2022/09/18 09:41:45;;;;;;;;;;;18.10;94.80;;;;;;5043994;28;20220;-10
2022/09/18 09:44:16;;;;;;;;;;;18.10;94.90;;;;;;5054916;28;20162;-10
2022/09/18 09:47:01;;;;;;;;;;;18.10;95.00;;;;;;5057240;28;19909;-10
2022/09/18 09:49:38;;;;;;;;;;;18.00;95.00;;;;;;5056529;28;19916;-10
2022/09/18 09:52:18;;;;;;;;;;;18.00;95.40;;;;;;5055567;28;20127;-10
2022/09/18 09:54:44;;;;;;;;;;;18.00;95.20;;;;;;5080556;28;19999;-12
2022/09/18 09:57:22;;;;;;;;;;;18.00;95.30;;;;;;5063555;28;20281;-9
2022/09/18 10:00:04;;;;;;;;;;;18.00;95.30;;;;;;5081714;28;19912;-9
2022/09/18 10:02:33;;;;;;;;;;;17.90;95.30;;;;;;5060323;28;19919;-8
2022/09/18 10:05:24;;;;;;;;;;;18.00;95.30;;;;;;5075648;28;19970;-9
2022/09/18 10:07:55;;;;;;;;;;;17.90;95.30;;;;;;5074999;28;19954;-10
2022/09/18 10:10:35;;;;;;;;;;;17.90;95.40;;;;;;5057506;28;19912;-9
2022/09/18 10:13:09;;;;;;;;;;;17.90;95.40;;;;;;5075568;28;20356;-9
2022/09/18 10:15:40;;;;;;;;;;;17.90;95.40;;;;;;5071330;28;20092;-11
2022/09/18 10:18:20;;;;;;;;;;;17.90;95.40;;;;;;5057121;28;19920;-11
2022/09/18 10:20:47;;;;;;;;;;;17.90;95.40;;;;;;5073370;28;19909;-10
2022/09/18 10:23:21;;;;;;;;;;;17.90;95.50;;;;;;5054137;28;19934;-10
2022/09/18 10:25:50;;;;;;;;;;;17.90;95.60;;;;;;5072637;28;20310;-9
2022/09/18 10:28:16;;;;;;;;;;;17.90;95.60;;;;;;5072562;28;19909;-10
2022/09/18 10:31:01;;;;;;;;;;;17.90;95.70;;;;;;5072319;28;19915;-10
2022/09/18 10:33:32;;;;;;;;;;;17.90;95.80;;;;;;5073413;28;19908;-10
2022/09/18 10:36:09;;;;;;;;;;;17.90;95.90;;;;;;5071707;28;20189;-10
2022/09/18 10:38:38;;;;;;;;;;;17.90;95.90;;;;;;5056407;28;19923;-9
2022/09/18 10:41:16;;;;;;;;;;;17.90;95.90;;;;;;5070844;28;20333;-11
2022/09/18 10:43:51;;;;;;;;;;;17.90;95.90;;;;;;5057117;28;19908;-10
2022/09/18 10:46:24;;;;;;;;;;;17.90;95.90;;;;;;5071754;28;19916;-9
2022/09/18 10:48:53;;;;;;;;;;;17.90;95.90;;;;;;5072560;28;19909;-10
2022/09/18 10:51:24;;;;;;;;;;;17.90;95.80;;;;;;5072478;28;19971;-10
2022/09/18 10:54:02;;;;;;;;;;;17.90;95.70;;;;;;5052691;28;19909;-9
2022/09/18 10:56:28;;;;;;;;;;;18.00;95.70;;;;;;5055249;28;19908;-9
2022/09/18 10:58:54;;;;;;;;;;;18.00;95.60;;;;;;5070818;28;20343;-9
2022/09/18 11:01:20;;;;;;;;;;;18.00;95.50;;;;;;5072048;28;20132;-9
2022/09/18 11:03:48;;;;;;;;;;;18.00;95.80;;;;;;5055934;28;19921;-8
2022/09/18 11:06:18;;;;;;;;;;;18.00;95.50;;;;;;5056557;28;20271;-10
2022/09/18 11:08:45;;;;;;;;;;;18.00;95.50;;;;;;5072568;28;19920;-9
2022/09/18 11:11:26;;;;;;;;;;;18.00;95.60;;;;;;5071184;28;20011;-9
2022/09/18 11:13:55;;;;;;;;;;;18.00;95.60;;;;;;5070901;28;19916;-10
2022/09/18 11:16:21;;;;;;;;;;;18.00;95.60;;;;;;5071345;28;19944;-9
2022/09/18 11:18:58;;;;;;;;;;;18.00;95.50;;;;;;5071299;28;20003;-9
2022/09/18 11:21:24;;;;;;;;;;;18.00;95.50;;;;;;5071626;28;20209;-9
2022/09/18 11:24:00;;;;;;;;;;;18.00;95.50;;;;;;5071063;28;20258;-11
2022/09/18 11:26:26;;;;;;;;;;;18.10;95.40;;;;;;5069832;28;20066;-10
2022/09/18 11:29:00;;;;;;;;;;;18.10;95.40;;;;;;5053059;28;19912;-10
2022/09/18 11:31:36;;;;;;;;;;;18.10;95.30;;;;;;5070344;28;20007;-10
2022/09/18 11:34:02;;;;;;;;;;;18.10;95.30;;;;;;5074772;28;19986;-10
2022/09/18 11:36:30;;;;;;;;;;;18.10;95.20;;;;;;5077471;28;20403;-9
2022/09/18 11:38:58;;;;;;;;;;;18.10;95.10;;;;;;5059783;28;19916;-10
2022/09/18 11:41:25;;;;;;;;;;;18.20;95.20;;;;;;5076159;28;19951;-9
2022/09/18 11:44:05;;;;;;;;;;;18.20;95.10;;;;;;5077150;28;20301;-11
2022/09/18 11:46:39;;;;;;;;;;;18.20;95.10;;;;;;5077377;28;19908;-11
2022/09/18 11:49:24;;;;;;;;;;;18.20;95.10;;;;;;5076425;28;19962;-11
2022/09/18 11:51:54;;;;;;;;;;;18.20;95.10;;;;;;5058427;28;20176;-10
2022/09/18 11:54:34;;;;;;;;;;;18.20;95.10;;;;;;5076627;28;19920;-10
2022/09/18 11:57:13;;;;;;;;;;;18.20;95.10;;;;;;5076413;28;19917;-11
2022/09/18 11:59:41;;;;;;;;;;;18.20;95.10;;;;;;5076112;28;20002;-11
2022/09/18 12:02:13;;;;;;;;;;;18.20;95.10;;;;;;5076350;28;20289;-8
2022/09/18 12:04:43;;;;;;;;;;;18.20;95.20;;;;;;5058935;28;19909;-10
2022/09/18 12:07:09;;;;;;;;;;;18.20;95.10;;;;;;5059575;28;19973;-10
2022/09/18 12:09:37;;;;;;;;;;;18.20;95.10;;;;;;5075769;28;20367;-9
2022/09/18 12:12:16;;;;;;;;;;;18.20;95.10;;;;;;5075909;28;19924;-10
2022/09/18 12:14:51;;;;;;;;;;;18.20;95.10;;;;;;5075608;28;19927;-10
2022/09/18 12:17:27;;;;;;;;;;;18.20;95.10;;;;;;5075605;28;19951;-10
2022/09/18 12:19:59;;;;;;;;;;;18.20;95.10;;;;;;5074951;28;20465;-10
2022/09/18 12:22:32;;;;;;;;;;;18.20;95.10;;;;;;5057950;28;19920;-10
2022/09/18 12:24:58;;;;;;;;;;;18.20;95.10;;;;;;5074826;28;19908;-11
2022/09/18 12:27:38;;;;;;;;;;;18.20;95.10;;;;;;5075627;28;19909;-10
2022/09/18 12:30:04;;;;;;;;;;;18.20;95.10;;;;;;5075258;28;20299;-10
2022/09/18 12:32:48;;;;;;;;;;;18.20;95.20;;;;;;5057716;28;19948;-11
2022/09/18 12:35:27;;;;;;;;;;;18.20;95.30;;;;;;5068732;28;19914;-9
2022/09/18 12:38:11;;;;;;;;;;;18.10;95.30;;;;;;5051764;28;20018;-10
2022/09/18 12:40:55;;;;;;;;;;;18.20;95.40;;;;;;5068691;28;19995;-10
2022/09/18 12:43:30;;;;;;;;;;;18.20;95.40;;;;;;5068966;28;20061;-10
2022/09/18 12:45:55;;;;;;;;;;;18.10;95.30;;;;;;5070009;28;20171;-10
2022/09/18 12:48:21;;;;;;;;;;;18.20;95.50;;;;;;5069330;28;20424;-10
2022/09/18 12:50:53;;;;;;;;;;;18.10;95.50;;;;;;5068836;28;20394;-12
2022/09/18 12:53:44;;;;;;;;;;;18.20;95.60;;;;;;5066747;28;19919;-10
2022/09/18 12:56:09;;;;;;;;;;;18.20;95.50;;;;;;5067655;28;19940;-9
2022/09/18 12:58:50;;;;;;;;;;;18.20;95.50;;;;;;5067877;28;20380;-10
2022/09/18 13:01:27;;;;;;;;;;;18.20;95.50;;;;;;5048904;28;19920;-11
2022/09/18 13:03:55;;;;;;;;;;;18.20;95.60;;;;;;5066851;28;19908;-10
2022/09/18 13:06:28;;;;;;;;;;;18.10;95.60;;;;;;5068393;28;19986;-9
2022/09/18 13:08:56;;;;;;;;;;;18.10;95.70;;;;;;5051240;28;19943;-10
2022/09/18 13:11:30;;;;;;;;;;;18.10;95.70;;;;;;5070129;28;19908;-10
2022/09/18 13:13:58;;;;;;;;;;;18.10;95.90;;;;;;5070688;28;19913;-10
2022/09/18 13:16:23;;;;;;;;;;;18.10;95.90;;;;;;5052654;28;19912;-10
2022/09/18 13:18:55;;;;;;;;;;;18.00;95.90;;;;;;5052966;28;19924;-10
2022/09/18 13:21:28;;;;;;;;;;;18.00;96.00;;;;;;5047141;28;19909;-11
2022/09/18 13:23:55;;;;;;;;;;;18.00;96.00;;;;;;5052141;28;19908;-9
2022/09/18 13:26:23;;;;;;;;;;;18.10;96.00;;;;;;5051763;28;20366;-12
2022/09/18 13:28:49;;;;;;;;;;;18.10;96.00;;;;;;5069329;28;19909;-10
2022/09/18 13:31:29;;;;;;;;;;;18.10;95.90;;;;;;5051370;28;19908;-10
2022/09/18 13:33:55;;;;;;;;;;;18.10;95.90;;;;;;5067774;28;19936;-10
2022/09/18 13:36:24;;;;;;;;;;;18.10;95.80;;;;;;5068623;28;19951;-9
2022/09/18 13:38:53;;;;;;;;;;;18.10;95.90;;;;;;5069488;28;19934;-10
2022/09/18 13:41:19;;;;;;;;;;;18.10;96.00;;;;;;5050904;28;19935;-10
2022/09/18 13:43:50;;;;;;;;;;;18.10;96.10;;;;;;5067630;28;20201;-10
2022/09/18 13:46:36;;;;;;;;;;;18.10;96.20;;;;;;5049838;28;20089;-9
2022/09/18 13:49:14;;;;;;;;;;;18.10;96.40;;;;;;5067051;28;20218;-11
2022/09/18 13:51:42;;;;;;;;;;;18.10;96.50;;;;;;5054073;28;19908;-12
2022/09/18 13:54:19;;;;;;;;;;;18.10;96.50;;;;;;5053142;28;19908;-9
2022/09/18 13:57:09;;;;;;;;;;;18.00;96.50;;;;;;5053344;28;19923;-8
2022/09/18 13:59:49;;;;;;;;;;;18.10;96.60;;;;;;5053809;28;19917;-11
2022/09/18 14:02:20;;;;;;;;;;;18.00;96.60;;;;;;5070505;28;19908;-10
2022/09/18 14:04:48;;;;;;;;;;;18.00;96.70;;;;;;5073424;28;19908;-10
2022/09/18 14:07:19;;;;;;;;;;;18.00;96.70;;;;;;5072868;28;19977;-10
2022/09/18 14:09:52;;;;;;;;;;;18.00;96.70;;;;;;5074532;28;19908;-8
2022/09/18 14:12:21;;;;;;;;;;;18.00;96.60;;;;;;5073809;28;20222;-8
2022/09/18 14:14:59;;;;;;;;;;;18.00;96.70;;;;;;5074599;28;20015;-9
2022/09/18 14:17:25;;;;;;;;;;;18.00;96.70;;;;;;5076352;28;19912;-9
2022/09/18 14:19:58;;;;;;;;;;;18.00;96.70;;;;;;5056938;28;20298;-10
2022/09/18 14:22:33;;;;;;;;;;;18.00;96.70;;;;;;5056062;28;19917;-11
2022/09/18 14:25:01;;;;;;;;;;;18.00;96.70;;;;;;5070684;28;19913;-9
2022/09/18 14:27:47;;;;;;;;;;;18.00;96.80;;;;;;5070211;28;19915;-9
2022/09/18 14:30:23;;;;;;;;;;;18.00;96.80;;;;;;5070267;28;19908;-9
2022/09/18 14:32:52;;;;;;;;;;;18.00;96.90;;;;;;5053747;28;19904;-9
2022/09/18 14:35:25;;;;;;;;;;;18.00;96.90;;;;;;5053391;28;19919;-10
2022/09/18 14:37:51;;;;;;;;;;;18.00;97.00;;;;;;5052107;28;19909;-9